Time;durP1;ratioP1;P1;durP2;ratioP2;P2;SDS_P1;SDS_P2;PMS_P1;PMS_P2;Temp;Humidity;BMP_temperature;BMP_pressure;BME280_temperature;BME280_humidity;BME280_pressure;Samples;Min_cycle;Max_cycle;Signal;HPM_P1;HPM_P2
2023/07/25 00:01:49;;;;;;;1999.90;999.90;;;17.20;99.90;;;;;;4996265;28;20444;-71
2023/07/25 00:04:16;;;;;;;1999.90;999.90;;;17.30;99.90;;;;;;4994085;28;20434;-72
2023/07/25 00:06:43;;;;;;;1999.90;999.90;;;17.40;99.90;;;;;;4991683;28;20446;-72
2023/07/25 00:09:09;;;;;;;1999.90;999.90;;;17.40;99.90;;;;;;4991377;28;20448;-72
2023/07/25 00:11:36;;;;;;;1999.90;999.90;;;17.50;99.90;;;;;;4995847;28;20436;-72
2023/07/25 00:14:03;;;;;;;1999.90;999.90;;;17.50;99.90;;;;;;4992314;28;20445;-72
2023/07/25 00:16:31;;;;;;;1999.90;999.90;;;17.50;99.90;;;;;;4989180;28;20435;-72
2023/07/25 00:18:58;;;;;;;1999.90;999.90;;;17.40;99.90;;;;;;4990532;28;20937;-72
2023/07/25 00:21:25;;;;;;;1999.90;999.90;;;17.30;99.90;;;;;;5001765;28;20440;-72
2023/07/25 00:23:51;;;;;;;1999.90;999.90;;;17.30;99.90;;;;;;4993905;28;20438;-72
2023/07/25 00:26:18;;;;;;;1999.90;999.90;;;17.30;99.90;;;;;;4993583;28;20434;-72
2023/07/25 00:28:45;;;;;;;1999.90;999.90;;;17.10;99.90;;;;;;4990359;28;20445;-72
2023/07/25 00:31:11;;;;;;;1999.90;999.90;;;17.20;99.90;;;;;;4993989;28;20442;-72
2023/07/25 00:33:39;;;;;;;1999.90;999.90;;;17.20;99.90;;;;;;4996034;28;20442;-71
2023/07/25 00:36:06;;;;;;;1999.90;999.90;;;17.20;99.90;;;;;;4991030;28;20446;-72
2023/07/25 00:38:33;;;;;;;1999.90;999.90;;;17.20;99.90;;;;;;4989740;28;20441;-72
2023/07/25 00:41:00;;;;;;;1999.90;999.90;;;17.20;99.90;;;;;;4993543;28;20438;-71
2023/07/25 00:43:26;;;;;;;1999.90;999.90;;;17.10;99.90;;;;;;4990904;28;20446;-72
2023/07/25 00:45:53;;;;;;;1999.90;999.90;;;17.10;99.90;;;;;;4991614;28;20437;-72
2023/07/25 00:48:20;;;;;;;1999.90;999.90;;;17.00;99.90;;;;;;4989764;28;20437;-72
2023/07/25 00:50:48;;;;;;;1999.90;999.90;;;17.00;99.90;;;;;;4991499;28;20510;-72
2023/07/25 00:53:16;;;;;;;1999.90;999.90;;;17.10;99.90;;;;;;4991516;28;20938;-72
2023/07/25 00:55:44;;;;;;;1999.90;999.90;;;17.00;99.90;;;;;;4990624;28;20434;-71
2023/07/25 00:58:11;;;;;;;1999.90;999.90;;;16.90;99.90;;;;;;4990740;28;20449;-72
2023/07/25 01:00:39;;;;;;;1999.90;999.90;;;16.70;99.90;;;;;;4990677;28;20430;-72
2023/07/25 01:03:06;;;;;;;1999.90;999.90;;;16.50;99.90;;;;;;4991884;28;20465;-72
2023/07/25 01:05:36;;;;;;;1999.90;999.90;;;16.40;99.90;;;;;;4988734;28;20453;-72
2023/07/25 01:08:04;;;;;;;1999.90;999.90;;;16.40;99.90;;;;;;4993649;28;20438;-72
2023/07/25 01:10:32;;;;;;;1999.90;999.90;;;16.40;99.90;;;;;;4990347;28;20430;-72
2023/07/25 01:12:59;;;;;;;1999.90;999.90;;;16.40;99.90;;;;;;4992345;28;20445;-71
2023/07/25 01:15:26;;;;;;;1999.90;999.90;;;16.40;99.90;;;;;;4991322;28;20916;-72
2023/07/25 01:17:54;;;;;;;1999.90;999.90;;;16.40;99.90;;;;;;4996396;28;20449;-71
2023/07/25 01:20:21;;;;;;;1999.90;999.90;;;16.20;99.90;;;;;;4989922;28;20435;-71
2023/07/25 01:22:48;;;;;;;1999.90;999.90;;;16.00;99.90;;;;;;4998616;28;20434;-69
2023/07/25 01:25:17;;;;;;;1999.90;999.90;;;15.90;99.90;;;;;;4991619;28;20802;-71
2023/07/25 01:27:43;;;;;;;1999.90;999.90;;;15.80;99.90;;;;;;4989138;28;20809;-71
2023/07/25 01:30:11;;;;;;;1999.90;999.90;;;15.80;99.90;;;;;;4989941;28;20481;-71
2023/07/25 01:32:38;;;;;;;1999.90;999.90;;;15.80;99.90;;;;;;4995155;28;20508;-72
2023/07/25 01:35:05;;;;;;;1999.90;999.90;;;15.80;99.90;;;;;;4990494;28;20438;-72
2023/07/25 01:37:32;;;;;;;1999.90;999.90;;;15.80;99.90;;;;;;4990644;28;20434;-71
2023/07/25 01:39:59;;;;;;;1999.90;999.90;;;15.70;99.90;;;;;;4998044;28;20457;-72
2023/07/25 01:42:27;;;;;;;1999.90;999.90;;;15.60;99.90;;;;;;4995791;28;20434;-71
2023/07/25 01:44:53;;;;;;;1999.90;999.90;;;15.50;99.90;;;;;;4990384;28;20457;-71
2023/07/25 01:47:25;;;;;;;1999.90;999.90;;;15.40;99.90;;;;;;4990013;28;20441;-71
2023/07/25 01:49:51;;;;;;;1999.90;999.90;;;15.40;99.90;;;;;;4989566;28;20423;-71
2023/07/25 01:52:18;;;;;;;1999.90;999.90;;;15.40;99.90;;;;;;4991052;28;20445;-71
2023/07/25 01:54:45;;;;;;;1999.90;999.90;;;15.30;99.90;;;;;;4995090;28;20794;-72
2023/07/25 01:57:12;;;;;;;1999.90;999.90;;;15.40;99.90;;;;;;4989323;28;20782;-71
2023/07/25 01:59:40;;;;;;;1999.90;999.90;;;15.40;99.90;;;;;;4990027;28;20865;-71
2023/07/25 02:02:07;;;;;;;1999.90;999.90;;;15.50;99.90;;;;;;4988060;28;20441;-72
2023/07/25 02:04:34;;;;;;;1999.90;999.90;;;15.50;99.90;;;;;;4989947;28;20477;-72
2023/07/25 02:07:00;;;;;;;1999.90;999.90;;;15.40;99.90;;;;;;4990098;28;20441;-71
2023/07/25 02:09:27;;;;;;;1999.90;999.90;;;15.40;99.90;;;;;;4993502;28;20818;-71
2023/07/25 02:11:54;;;;;;;1999.90;999.90;;;15.30;99.90;;;;;;4990510;28;20442;-71
2023/07/25 02:14:21;;;;;;;1999.90;999.90;;;15.20;99.90;;;;;;4997714;28;20453;-72
2023/07/25 02:16:49;;;;;;;1999.90;999.90;;;15.20;99.90;;;;;;4994002;28;20493;-71
2023/07/25 02:19:16;;;;;;;1999.90;999.90;;;15.30;99.90;;;;;;4990202;28;20449;-72
2023/07/25 02:21:42;;;;;;;1999.90;999.90;;;15.30;99.90;;;;;;4992299;28;20434;-72
2023/07/25 02:24:09;;;;;;;1999.90;999.90;;;15.20;99.90;;;;;;4990019;28;20465;-72
2023/07/25 02:26:38;;;;;;;1999.90;999.90;;;15.20;99.90;;;;;;4996134;28;20442;-72
2023/07/25 02:29:04;;;;;;;1999.90;999.90;;;15.30;99.90;;;;;;4988457;28;20441;-71
2023/07/25 02:31:31;;;;;;;1999.90;999.90;;;15.30;99.90;;;;;;4993373;28;20968;-71
2023/07/25 02:33:59;;;;;;;1999.90;999.90;;;15.20;99.90;;;;;;4986811;28;20442;-72
2023/07/25 02:36:26;;;;;;;1999.90;999.90;;;15.10;99.90;;;;;;4992021;28;20818;-71
2023/07/25 02:38:52;;;;;;;1999.90;999.90;;;15.10;99.90;;;;;;4990100;28;20437;-72
2023/07/25 02:41:19;;;;;;;1999.90;999.90;;;15.10;99.90;;;;;;4987591;28;20433;-72
2023/07/25 02:43:46;;;;;;;1999.90;999.90;;;15.10;99.90;;;;;;4989729;28;20441;-72
2023/07/25 02:46:13;;;;;;;1999.90;999.90;;;15.00;99.90;;;;;;4991213;28;20441;-71
2023/07/25 02:48:40;;;;;;;1999.90;999.90;;;15.00;99.90;;;;;;4990101;28;20441;-72
2023/07/25 02:51:08;;;;;;;1999.90;999.90;;;15.10;99.90;;;;;;5003804;28;20436;-71
2023/07/25 02:53:34;;;;;;;1999.90;999.90;;;15.20;99.90;;;;;;4999193;28;20442;-72
2023/07/25 02:56:01;;;;;;;1999.90;999.90;;;15.20;99.90;;;;;;4994828;28;20499;-72
2023/07/25 02:58:28;;;;;;;1999.90;999.90;;;15.10;99.90;;;;;;4987839;28;20802;-72
2023/07/25 03:00:54;;;;;;;1999.90;999.90;;;15.10;99.90;;;;;;4996148;28;20433;-72
2023/07/25 03:03:21;;;;;;;1999.90;999.90;;;15.10;99.90;;;;;;4994845;28;20819;-72
2023/07/25 03:05:48;;;;;;;1999.90;999.90;;;15.10;99.90;;;;;;5000645;28;20451;-71
2023/07/25 03:08:17;;;;;;;1999.90;999.90;;;15.30;99.90;;;;;;4995850;28;20800;-70
2023/07/25 03:10:43;;;;;;;1999.90;999.90;;;15.30;99.90;;;;;;4990708;28;20527;-72
2023/07/25 03:13:10;;;;;;;1999.90;999.90;;;15.40;99.90;;;;;;4996157;28;20461;-72
2023/07/25 03:15:37;;;;;;;1999.90;999.90;;;15.50;99.90;;;;;;5001757;28;20961;-72
2023/07/25 03:18:05;;;;;;;1999.90;999.90;;;15.50;99.90;;;;;;4999017;28;20928;-72
2023/07/25 03:20:31;;;;;;;1999.90;999.90;;;15.40;99.90;;;;;;4993130;28;20442;-71
2023/07/25 03:22:58;;;;;;;1999.90;999.90;;;15.40;99.90;;;;;;4988960;28;20926;-72
2023/07/25 03:25:26;;;;;;;1999.90;999.90;;;15.50;99.90;;;;;;5002234;28;20453;-72
2023/07/25 03:27:53;;;;;;;1999.90;999.90;;;15.40;99.90;;;;;;4997231;28;20438;-72
2023/07/25 03:30:20;;;;;;;1999.90;999.90;;;15.40;99.90;;;;;;4995924;28;20447;-72
2023/07/25 03:32:46;;;;;;;1999.90;999.90;;;15.30;99.90;;;;;;4993004;28;20424;-71
2023/07/25 03:35:13;;;;;;;1999.90;999.90;;;15.30;99.90;;;;;;4995293;28;20436;-71
2023/07/25 03:37:40;;;;;;;1999.90;999.90;;;15.40;99.90;;;;;;4996382;28;20450;-72
2023/07/25 03:40:08;;;;;;;1999.90;999.90;;;15.30;99.90;;;;;;4999828;28;20444;-71
2023/07/25 03:42:36;;;;;;;1999.90;999.90;;;15.30;99.90;;;;;;4992474;28;20449;-72
2023/07/25 03:45:02;;;;;;;1999.90;999.90;;;15.40;99.90;;;;;;4989785;28;20434;-72
2023/07/25 03:47:29;;;;;;;1999.90;999.90;;;15.50;99.90;;;;;;5003449;28;20859;-72
2023/07/25 03:49:56;;;;;;;1999.90;999.90;;;15.40;99.90;;;;;;5002076;28;20440;-71
2023/07/25 03:52:22;;;;;;;1999.90;999.90;;;15.50;99.90;;;;;;4995872;28;20433;-72
2023/07/25 03:54:49;;;;;;;1999.90;999.90;;;15.40;99.90;;;;;;4991873;28;20438;-72
2023/07/25 03:57:16;;;;;;;1999.90;999.90;;;15.40;99.90;;;;;;4996172;28;20440;-70
2023/07/25 03:59:44;;;;;;;1999.90;999.90;;;15.30;99.90;;;;;;5003828;28;20829;-73
2023/07/25 04:02:11;;;;;;;1999.90;999.90;;;15.20;99.90;;;;;;4998043;28;20435;-72
2023/07/25 04:04:37;;;;;;;1999.90;999.90;;;15.20;99.90;;;;;;4990009;28;20438;-72
2023/07/25 04:07:05;;;;;;;1999.90;999.90;;;15.10;99.90;;;;;;4990183;28;20495;-71
2023/07/25 04:09:31;;;;;;;1999.90;999.90;;;15.10;99.90;;;;;;5007985;28;20430;-72
2023/07/25 04:11:58;;;;;;;1999.90;999.90;;;15.20;99.90;;;;;;5006008;28;21019;-72
2023/07/25 04:14:25;;;;;;;1999.90;999.90;;;15.20;99.90;;;;;;4999507;28;20444;-72
2023/07/25 04:16:53;;;;;;;1999.90;999.90;;;15.30;99.90;;;;;;4995664;28;20950;-71
2023/07/25 04:19:19;;;;;;;1999.90;999.90;;;15.40;99.90;;;;;;4997816;28;20441;-72
2023/07/25 04:21:46;;;;;;;1999.90;999.90;;;15.50;99.90;;;;;;5007387;28;20818;-72
2023/07/25 04:24:13;;;;;;;1999.90;999.90;;;15.50;99.90;;;;;;5002863;28;20436;-72
2023/07/25 04:26:40;;;;;;;1999.90;999.90;;;15.50;99.90;;;;;;4998085;28;20465;-72
2023/07/25 04:29:06;;;;;;;1999.90;999.90;;;15.60;99.90;;;;;;4995403;28;20445;-72
2023/07/25 04:31:33;;;;;;;1999.90;999.90;;;15.60;99.90;;;;;;5026313;23;20865;-71
2023/07/25 04:34:01;;;;;;;1999.90;999.90;;;15.70;99.90;;;;;;5031179;28;20440;-71
2023/07/25 04:36:29;;;;;;;1999.90;999.90;;;15.70;99.90;;;;;;5040100;28;20433;-70
2023/07/25 04:38:56;;;;;;;1999.90;999.90;;;15.70;99.90;;;;;;5037685;28;20431;-69
2023/07/25 04:41:23;;;;;;;1999.90;999.90;;;15.80;99.90;;;;;;5028804;28;20444;-70
2023/07/25 04:43:50;;;;;;;1999.90;999.90;;;16.00;99.90;;;;;;5016977;28;20441;-72
2023/07/25 04:46:16;;;;;;;1999.90;999.90;;;16.10;99.90;;;;;;5020333;28;20853;-72
2023/07/25 04:48:42;;;;;;;1999.90;999.90;;;16.30;99.90;;;;;;5026485;28;20941;-71
2023/07/25 04:51:10;;;;;;;1999.90;999.90;;;16.40;99.90;;;;;;5026604;28;20427;-71
2023/07/25 04:53:37;;;;;;;1999.90;999.90;;;16.50;99.90;;;;;;5030421;28;20434;-69
2023/07/25 04:56:04;;;;;;;1999.90;999.90;;;16.80;99.90;;;;;;5017372;28;20440;-71
2023/07/25 04:58:31;;;;;;;1999.90;999.90;;;16.90;99.90;;;;;;5022631;28;20435;-69
2023/07/25 05:00:57;;;;;;;1999.90;999.90;;;16.80;99.90;;;;;;5024500;28;20431;-71
2023/07/25 05:03:25;;;;;;;1999.90;999.90;;;16.70;99.90;;;;;;5025978;28;20452;-71
2023/07/25 05:05:53;;;;;;;1999.90;999.90;;;16.80;99.90;;;;;;5028876;28;20493;-71
2023/07/25 05:08:21;;;;;;;1999.90;999.90;;;17.00;99.90;;;;;;5021465;28;20437;-72
2023/07/25 05:10:51;;;;;;;1999.90;999.90;;;17.50;99.90;;;;;;5015058;28;20442;-70
2023/07/25 05:13:18;;;;;;;1999.90;999.90;;;17.70;99.90;;;;;;5018317;28;20436;-71
2023/07/25 05:15:45;;;;;;;1999.90;999.90;;;17.70;99.90;;;;;;5023442;28;20446;-71
2023/07/25 05:18:11;;;;;;;1999.90;999.90;;;17.30;99.90;;;;;;5019559;28;20444;-72
2023/07/25 05:20:38;;;;;;;1999.90;999.90;;;17.40;99.90;;;;;;5026697;28;20916;-70
2023/07/25 05:23:06;;;;;;;1999.90;999.90;;;17.40;99.90;;;;;;5018519;28;20442;-72
2023/07/25 05:25:34;;;;;;;1999.90;999.90;;;17.50;99.90;;;;;;5024746;28;20809;-71
2023/07/25 05:28:00;;;;;;;1999.90;999.90;;;17.50;99.90;;;;;;5018587;28;20418;-70
2023/07/25 05:30:27;;;;;;;1999.90;999.90;;;17.40;99.90;;;;;;5017965;28;20422;-72
2023/07/25 05:32:54;;;;;;;1999.90;999.90;;;17.40;99.90;;;;;;5021058;28;20432;-71
2023/07/25 05:35:20;;;;;;;1999.90;999.90;;;17.40;99.90;;;;;;5021306;28;20419;-71
2023/07/25 05:37:47;;;;;;;1999.90;999.90;;;17.30;99.90;;;;;;5014654;28;20930;-72
2023/07/25 05:40:14;;;;;;;1999.90;999.90;;;17.20;99.90;;;;;;5023005;28;20435;-69
2023/07/25 05:42:42;;;;;;;1999.90;999.90;;;17.30;99.90;;;;;;5028772;28;20442;-71
2023/07/25 05:45:09;;;;;;;1999.90;999.90;;;17.30;99.90;;;;;;5022669;28;20441;-70
2023/07/25 05:47:36;;;;;;;1999.90;999.90;;;17.30;99.90;;;;;;5030816;28;20434;-72
2023/07/25 05:50:03;;;;;;;1999.90;999.90;;;17.20;99.90;;;;;;5031170;28;20438;-72
2023/07/25 05:52:29;;;;;;;1999.90;999.90;;;17.30;99.90;;;;;;5031406;28;20418;-70
2023/07/25 05:54:56;;;;;;;1999.90;999.90;;;17.30;99.90;;;;;;5028500;28;20426;-69
2023/07/25 05:57:23;;;;;;;1999.90;999.90;;;17.30;99.90;;;;;;5020297;28;20440;-71
2023/07/25 05:59:51;;;;;;;1999.90;999.90;;;17.20;99.90;;;;;;5025257;28;20442;-72
2023/07/25 06:02:17;;;;;;;1999.90;999.90;;;17.20;99.90;;;;;;5028539;28;20795;-69
2023/07/25 06:04:46;;;;;;;1999.90;999.90;;;17.30;99.90;;;;;;5026873;28;20440;-69
2023/07/25 06:07:13;;;;;;;1999.90;999.90;;;17.40;99.90;;;;;;5016562;28;20511;-70
2023/07/25 06:09:40;;;;;;;1999.90;999.90;;;17.70;99.90;;;;;;5020327;28;20439;-72
2023/07/25 06:12:08;;;;;;;1999.90;999.90;;;17.70;99.90;;;;;;5022386;28;20458;-69
2023/07/25 06:14:35;;;;;;;1999.90;999.90;;;17.60;99.90;;;;;;5024332;28;20447;-71
2023/07/25 06:17:03;;;;;;;1999.90;999.90;;;17.60;99.90;;;;;;5018901;28;20440;-72
2023/07/25 06:19:30;;;;;;;1999.90;999.90;;;17.60;99.90;;;;;;5021393;28;20473;-72
2023/07/25 06:21:57;;;;;;;1999.90;999.90;;;17.70;99.90;;;;;;5023562;28;20431;-72
2023/07/25 06:24:24;;;;;;;1999.90;999.90;;;17.70;99.90;;;;;;5021418;28;20450;-71
2023/07/25 06:26:50;;;;;;;1999.90;999.90;;;17.70;99.90;;;;;;5024858;28;20443;-73
2023/07/25 06:29:17;;;;;;;1999.90;999.90;;;17.80;99.90;;;;;;5013950;28;20807;-72
2023/07/25 06:31:44;;;;;;;1999.90;999.90;;;18.10;99.90;;;;;;5020363;28;20442;-72
2023/07/25 06:34:12;;;;;;;1999.90;999.90;;;18.10;99.90;;;;;;5016587;28;20437;-71
2023/07/25 06:36:39;;;;;;;1999.90;999.90;;;18.20;99.90;;;;;;5023601;28;20430;-71
2023/07/25 06:39:05;;;;;;;1999.90;999.90;;;18.30;99.90;;;;;;5026242;28;20443;-72
2023/07/25 06:41:32;;;;;;;1999.90;999.90;;;18.30;99.90;;;;;;5026198;28;20426;-70
2023/07/25 06:43:59;;;;;;;1999.90;999.90;;;18.30;99.90;;;;;;5013009;28;20451;-71
2023/07/25 06:46:25;;;;;;;1999.90;999.90;;;18.30;99.90;;;;;;5024898;28;20919;-72
2023/07/25 06:48:52;;;;;;;1999.90;999.90;;;18.30;99.90;;;;;;5023403;28;20435;-71
2023/07/25 06:51:21;;;;;;;1999.90;999.90;;;18.20;99.90;;;;;;5021892;28;20594;-72
2023/07/25 06:53:48;;;;;;;1999.90;999.90;;;18.30;99.90;;;;;;5022026;28;20445;-70
2023/07/25 06:56:15;;;;;;;1999.90;999.90;;;18.40;99.90;;;;;;5025326;28;20435;-71
2023/07/25 06:58:41;;;;;;;1999.90;999.90;;;18.50;99.90;;;;;;5021225;28;20438;-71
2023/07/25 07:01:08;;;;;;;1999.90;999.90;;;18.40;99.90;;;;;;5018804;28;20457;-70
2023/07/25 07:03:37;;;;;;;1999.90;999.90;;;18.60;99.90;;;;;;5012849;28;20927;-72
2023/07/25 07:06:03;;;;;;;1999.90;999.90;;;18.70;99.90;;;;;;5025644;28;20438;-72
2023/07/25 07:08:31;;;;;;;1999.90;999.90;;;18.80;99.90;;;;;;5018179;28;20444;-71
2023/07/25 07:10:58;;;;;;;1999.90;999.90;;;18.80;99.90;;;;;;5018316;28;20430;-71
2023/07/25 07:13:25;;;;;;;1999.90;999.90;;;18.80;99.90;;;;;;5018440;28;20810;-72
2023/07/25 07:15:52;;;;;;;1999.90;999.90;;;18.70;99.90;;;;;;5018298;28;20934;-72
2023/07/25 07:18:18;;;;;;;1999.90;999.90;;;19.10;99.90;;;;;;5016956;28;20415;-72
2023/07/25 07:20:47;;;;;;;1999.90;999.90;;;19.40;99.90;;;;;;5029838;28;20430;-71
2023/07/25 07:23:14;;;;;;;1999.90;999.90;;;19.40;99.90;;;;;;5017617;28;20472;-72
2023/07/25 07:25:42;;;;;;;1999.90;999.90;;;19.20;99.90;;;;;;5023446;28;20807;-72
2023/07/25 07:28:09;;;;;;;1999.90;999.90;;;19.00;99.90;;;;;;5026922;28;20429;-71
2023/07/25 07:30:36;;;;;;;1999.90;999.90;;;18.60;99.90;;;;;;5024984;28;20415;-71
2023/07/25 07:33:03;;;;;;;1999.90;999.90;;;18.40;99.90;;;;;;5018465;28;20429;-71
2023/07/25 07:35:29;;;;;;;1999.90;999.90;;;18.20;99.90;;;;;;5024648;28;20426;-71
2023/07/25 07:37:56;;;;;;;1999.90;999.90;;;18.10;99.90;;;;;;5017742;28;20430;-72
2023/07/25 07:40:23;;;;;;;1999.90;999.90;;;18.10;99.90;;;;;;5022896;28;20797;-70
2023/07/25 07:42:51;;;;;;;1999.90;999.90;;;18.20;99.90;;;;;;5020372;28;20432;-71
2023/07/25 07:45:18;;;;;;;1999.90;999.90;;;18.20;99.90;;;;;;5031894;28;20776;-69
2023/07/25 07:47:44;;;;;;;1999.90;999.90;;;18.20;99.90;;;;;;5027282;28;20435;-68
2023/07/25 07:50:11;;;;;;;1999.90;999.90;;;18.30;99.90;;;;;;5024292;28;20514;-68
2023/07/25 07:52:41;;;;;;;1999.90;999.90;;;18.30;99.90;;;;;;5018733;28;20436;-68
2023/07/25 07:55:09;;;;;;;1999.90;999.90;;;18.40;99.90;;;;;;5024169;28;20942;-68
2023/07/25 07:57:40;;;;;;;1999.90;999.90;;;18.40;99.90;;;;;;5027600;28;20855;-69
2023/07/25 08:00:09;;;;;;;1999.90;999.90;;;18.30;99.90;;;;;;5020322;28;20429;-69
2023/07/25 08:02:36;;;;;;;1999.90;999.90;;;18.30;99.90;;;;;;5017141;28;20935;-68
2023/07/25 08:05:03;;;;;;;1999.90;999.90;;;18.40;99.90;;;;;;5024862;28;20434;-72
2023/07/25 08:07:30;;;;;;;1999.90;999.90;;;18.40;99.90;;;;;;5020643;28;20439;-70
2023/07/25 08:09:57;;;;;;;1999.90;999.90;;;18.40;99.90;;;;;;5019149;28;20437;-72
2023/07/25 08:12:24;;;;;;;1999.90;999.90;;;18.40;99.90;;;;;;5024934;28;20861;-72
2023/07/25 08:14:51;;;;;;;1999.90;999.90;;;18.60;99.90;;;;;;5026057;28;20433;-72
2023/07/25 08:17:19;;;;;;;1999.90;999.90;;;19.00;99.90;;;;;;5022270;28;20928;-69
2023/07/25 08:19:46;;;;;;;1999.90;999.90;;;19.00;99.90;;;;;;5026014;28;20543;-70
2023/07/25 08:22:12;;;;;;;1999.90;999.90;;;19.20;99.90;;;;;;5025545;28;20440;-72
2023/07/25 08:24:40;;;;;;;1999.90;999.90;;;19.20;99.90;;;;;;5017487;28;20785;-71
2023/07/25 08:27:07;;;;;;;1999.90;999.90;;;19.00;99.90;;;;;;5023876;28;20431;-72
2023/07/25 08:29:38;;;;;;;1999.90;999.90;;;18.90;99.90;;;;;;5023332;28;20436;-70
2023/07/25 08:32:07;;;;;;;1999.90;999.90;;;18.80;99.90;;;;;;5024899;28;20929;-71
2023/07/25 08:34:35;;;;;;;1999.90;999.90;;;18.80;99.90;;;;;;5031966;28;20434;-70
2023/07/25 08:37:02;;;;;;;1999.90;999.90;;;18.90;99.90;;;;;;5032883;28;20465;-70
2023/07/25 08:39:29;;;;;;;1999.90;999.90;;;18.90;99.90;;;;;;5032630;28;20425;-72
2023/07/25 08:41:56;;;;;;;1999.90;999.90;;;19.00;99.90;;;;;;5030892;28;20435;-72
2023/07/25 08:44:24;;;;;;;1999.90;999.90;;;19.20;99.90;;;;;;5032686;28;20426;-71
2023/07/25 08:46:53;;;;;;;1999.90;999.90;;;19.10;99.90;;;;;;5032558;28;20796;-71
2023/07/25 08:49:23;;;;;;;1999.90;999.90;;;19.00;99.90;;;;;;5032570;28;20419;-72
2023/07/25 08:51:53;;;;;;;1999.90;999.90;;;18.80;99.90;;;;;;5030746;28;20826;-72
2023/07/25 08:54:30;;;;;;;1999.90;999.90;;;18.70;99.90;;;;;;5031737;28;20826;-71
2023/07/25 08:56:58;;;;;;;1999.90;999.90;;;18.70;99.90;;;;;;5032475;28;20415;-72
2023/07/25 08:59:25;;;;;;;1999.90;999.90;;;18.70;99.90;;;;;;5032259;28;20869;-72
2023/07/25 09:01:52;;;;;;;1999.90;999.90;;;19.00;99.90;;;;;;5030962;28;20435;-69
2023/07/25 09:04:20;;;;;;;1999.90;999.90;;;19.10;99.90;;;;;;5032781;28;20423;-71
2023/07/25 09:06:47;;;;;;;1999.90;999.90;;;19.40;99.90;;;;;;5032654;28;20917;-70
2023/07/25 09:09:15;;;;;;;1999.90;999.90;;;19.70;99.90;;;;;;5032380;28;20912;-71
2023/07/25 09:11:44;;;;;;;1999.90;999.90;;;19.70;99.90;;;;;;5031255;28;20435;-70
2023/07/25 09:14:11;;;;;;;1999.90;999.90;;;19.70;99.90;;;;;;5030272;28;20495;-70
2023/07/25 09:16:38;;;;;;;1999.90;999.90;;;19.80;99.90;;;;;;5032754;28;20806;-71
2023/07/25 09:19:05;;;;;;;1999.90;999.90;;;19.70;99.90;;;;;;5016288;28;20436;-70
2023/07/25 09:21:31;;;;;;;1999.90;999.90;;;19.60;99.90;;;;;;5021973;28;20432;-69
2023/07/25 09:23:59;;;;;;;1999.90;999.90;;;19.40;99.90;;;;;;5027034;28;20435;-70
2023/07/25 09:26:29;;;;;;;1999.90;999.90;;;19.30;99.90;;;;;;5028239;28;20435;-70
2023/07/25 09:28:58;;;;;;;1999.90;999.90;;;19.60;99.90;;;;;;5026518;28;20439;-67
2023/07/25 09:31:25;;;;;;;1999.90;999.90;;;19.50;99.90;;;;;;5018383;28;20441;-70
2023/07/25 09:33:54;;;;;;;1999.90;999.90;;;19.60;99.90;;;;;;5022415;28;20432;-68
2023/07/25 09:36:21;;;;;;;1999.90;999.90;;;20.00;99.90;;;;;;5025160;28;20810;-70
2023/07/25 09:38:49;;;;;;;1999.90;999.90;;;20.30;99.90;;;;;;5019258;28;20435;-70
2023/07/25 09:41:16;;;;;;;1999.90;999.90;;;20.30;99.90;;;;;;5029508;28;20435;-71
2023/07/25 09:43:44;;;;;;;1999.90;999.90;;;20.30;99.90;;;;;;5014814;28;20436;-71
2023/07/25 09:46:12;;;;;;;1999.90;999.90;;;20.30;99.90;;;;;;5016002;28;20873;-71
2023/07/25 09:48:43;;;;;;;1999.90;999.90;;;20.00;99.90;;;;;;5021450;28;20437;-69
2023/07/25 09:51:11;;;;;;;1999.90;999.90;;;19.80;99.90;;;;;;5021609;28;20447;-70
2023/07/25 09:53:38;;;;;;;1999.90;999.90;;;19.90;99.90;;;;;;5019384;28;20434;-70
2023/07/25 09:56:06;;;;;;;1999.90;999.90;;;19.80;99.90;;;;;;5020577;28;20476;-72
2023/07/25 09:58:34;;;;;;;1999.90;999.90;;;19.90;99.90;;;;;;5018243;28;20471;-71
2023/07/25 10:01:03;;;;;;;1999.90;999.90;;;20.00;99.90;;;;;;5026900;28;20953;-71
2023/07/25 10:03:31;;;;;;;1999.90;999.90;;;19.80;99.90;;;;;;5026473;28;20435;-71
2023/07/25 10:05:58;;;;;;;1999.90;999.90;;;19.70;99.90;;;;;;5030342;28;20422;-72
2023/07/25 10:08:26;;;;;;;1999.90;999.90;;;19.80;99.90;;;;;;5031054;28;20422;-71
2023/07/25 10:10:55;;;;;;;1999.90;999.90;;;19.80;99.90;;;;;;5029171;28;20426;-70
2023/07/25 10:13:22;;;;;;;1999.90;999.90;;;19.90;99.90;;;;;;5024897;28;20453;-71
2023/07/25 10:15:50;;;;;;;1999.90;999.90;;;20.00;99.90;;;;;;5031523;28;20415;-72
2023/07/25 10:18:23;;;;;;;1999.90;999.90;;;19.90;99.90;;;;;;5030971;28;20418;-70
2023/07/25 10:20:51;;;;;;;1999.90;999.90;;;20.10;99.90;;;;;;5022557;28;20447;-70
2023/07/25 10:23:18;;;;;;;1999.90;999.90;;;20.30;99.90;;;;;;5019213;28;20512;-71
2023/07/25 10:25:46;;;;;;;1999.90;999.90;;;20.60;99.90;;;;;;5023403;28;20445;-71
2023/07/25 10:28:13;;;;;;;1999.90;999.90;;;20.60;99.90;;;;;;5016474;28;20441;-71
2023/07/25 10:30:44;;;;;;;1999.90;999.90;;;20.80;99.90;;;;;;5021435;28;20443;-71
2023/07/25 10:33:13;;;;;;;1999.90;999.90;;;21.10;99.90;;;;;;5022606;28;20794;-71
2023/07/25 10:35:46;;;;;;;1999.90;999.90;;;21.10;99.90;;;;;;5019035;28;20498;-69
2023/07/25 10:38:15;;;;;;;1999.90;999.90;;;21.00;99.90;;;;;;5018314;28;20423;-71
2023/07/25 10:41:10;;;;;;;1999.90;999.90;;;20.90;99.90;;;;;;5028950;28;20446;-71
2023/07/25 10:43:56;;;;;;;1999.90;999.90;;;20.40;99.30;;;;;;5020561;28;20803;-71
2023/07/25 10:46:26;;;;;;;1999.90;999.90;;;20.60;97.70;;;;;;5026419;28;20434;-71
2023/07/25 10:48:54;;;;;;;1999.90;999.90;;;20.90;97.80;;;;;;5030576;28;20459;-71
2023/07/25 10:51:23;;;;;;;1999.90;999.90;;;21.10;97.90;;;;;;5021320;28;20441;-71
2023/07/25 10:54:10;;;;;;;1999.90;999.90;;;21.40;97.70;;;;;;5023156;28;20435;-71
2023/07/25 10:56:37;;;;;;;1999.90;999.90;;;21.40;96.30;;;;;;5025152;28;20496;-72
2023/07/25 10:59:09;;;;;;;1999.90;999.90;;;21.50;97.10;;;;;;5023604;28;20446;-71
2023/07/25 11:01:44;;;;;;;1999.90;999.90;;;21.70;97.50;;;;;;5021328;28;20438;-72
2023/07/25 11:04:25;;;;;;;1999.90;999.90;;;22.00;96.70;;;;;;5036570;23;20925;-70
2023/07/25 11:06:55;;;;;;;1999.90;999.90;;;21.80;98.40;;;;;;5003403;28;20434;-70
2023/07/25 11:09:23;;;;;;;1999.90;999.90;;;21.50;99.20;;;;;;5009611;28;20431;-70
2023/07/25 11:11:52;;;;;;;1999.90;999.90;;;21.40;99.50;;;;;;5009012;28;20436;-69
2023/07/25 11:14:20;;;;;;;1999.90;999.90;;;21.20;99.20;;;;;;5002669;28;20416;-70
2023/07/25 11:16:50;;;;;;;1999.90;999.90;;;20.80;99.60;;;;;;5011647;28;20620;-68
2023/07/25 11:19:19;;;;;;;1999.90;999.90;;;20.70;99.60;;;;;;5012956;28;20416;-70
2023/07/25 11:21:46;;;;;;;1999.90;999.90;;;20.50;98.00;;;;;;5013389;28;20432;-70
2023/07/25 11:24:14;;;;;;;1999.90;999.90;;;20.50;97.20;;;;;;5013655;28;20432;-72
2023/07/25 11:26:43;;;;;;;1999.90;999.90;;;20.50;96.70;;;;;;5013440;28;20423;-72
2023/07/25 11:29:13;;;;;;;1999.90;999.90;;;20.60;97.20;;;;;;5012978;28;20420;-70
2023/07/25 11:31:46;;;;;;;1999.90;999.90;;;21.00;97.50;;;;;;5012677;28;20432;-69
2023/07/25 11:34:14;;;;;;;1999.90;999.90;;;21.50;97.30;;;;;;5009618;28;20432;-70
2023/07/25 11:36:42;;;;;;;1999.90;999.90;;;21.80;97.60;;;;;;5009352;28;20432;-70
2023/07/25 11:39:09;;;;;;;1999.90;999.90;;;22.20;96.80;;;;;;5012273;28;21107;-71
2023/07/25 11:41:38;;;;;;;1999.90;999.90;;;22.60;95.20;;;;;;5010143;28;20443;-72
2023/07/25 11:44:08;;;;;;;1999.90;999.90;;;22.60;95.60;;;;;;5010358;28;20442;-73
2023/07/25 11:46:36;;;;;;;1999.90;999.90;;;22.70;96.60;;;;;;5013444;28;20439;-71
2023/07/25 11:49:03;;;;;;;1999.90;999.90;;;22.70;94.00;;;;;;5016558;28;20953;-71
2023/07/25 11:51:31;;;;;;;1999.90;999.90;;;22.20;94.20;;;;;;5019160;28;20833;-71
2023/07/25 11:53:58;;;;;;;1999.90;999.90;;;21.80;95.90;;;;;;5004676;28;20836;-70
2023/07/25 11:56:26;;;;;;;1999.90;999.90;;;21.40;97.20;;;;;;5008999;28;20463;-70
2023/07/25 11:58:54;;;;;;;1999.90;999.90;;;21.40;97.00;;;;;;5011262;28;20425;-70
2023/07/25 12:01:27;;;;;;;1999.90;999.90;;;21.50;97.70;;;;;;5010796;28;20955;-71